createdAt,value
2018-10-05T00:00:48.915Z,19.00
2018-10-05T00:01:54.270Z,19.00
2018-10-05T00:02:59.490Z,19.00
2018-10-05T00:04:04.680Z,19.00
2018-10-05T00:05:10.013Z,19.00
2018-10-05T00:06:15.293Z,19.00
2018-10-05T00:07:20.461Z,19.00
2018-10-05T00:08:25.849Z,19.00
2018-10-05T00:09:31.237Z,19.00
2018-10-05T00:10:36.670Z,19.00
2018-10-05T00:11:42.018Z,19.00
2018-10-05T00:12:47.435Z,19.00
2018-10-05T00:13:52.695Z,19.10
2018-10-05T00:14:57.951Z,19.00
2018-10-05T00:16:03.282Z,19.00
2018-10-05T00:17:08.474Z,19.00
2018-10-05T00:18:13.853Z,19.00
2018-10-05T00:19:19.135Z,19.00
2018-10-05T00:20:24.483Z,19.00
2018-10-05T00:21:29.785Z,19.00
2018-10-05T00:22:35.083Z,19.00
2018-10-05T00:23:40.454Z,19.00
2018-10-05T00:24:45.923Z,19.00
2018-10-05T00:25:51.250Z,19.00
2018-10-05T00:26:57.132Z,19.00
2018-10-05T00:28:02.378Z,19.00
2018-10-05T00:29:07.793Z,19.00
2018-10-05T00:30:13.101Z,19.00
2018-10-05T00:31:18.439Z,19.00
2018-10-05T00:32:23.914Z,19.00
2018-10-05T00:33:29.271Z,19.00
2018-10-05T00:34:34.618Z,19.00
2018-10-05T00:35:39.968Z,19.00
2018-10-05T00:36:45.266Z,19.00
2018-10-05T00:37:50.534Z,19.00
2018-10-05T00:38:55.899Z,19.00
2018-10-05T00:40:01.190Z,19.00
2018-10-05T00:41:06.541Z,19.00
2018-10-05T00:42:11.814Z,19.00
2018-10-05T00:43:17.192Z,19.00
2018-10-05T00:44:22.589Z,19.00
2018-10-05T00:45:27.783Z,19.00
2018-10-05T00:46:33.077Z,19.00
2018-10-05T00:47:38.407Z,19.00
2018-10-05T00:48:43.699Z,19.00
2018-10-05T00:49:48.976Z,19.00
2018-10-05T00:50:54.384Z,19.00
2018-10-05T00:51:59.719Z,19.00
2018-10-05T00:53:05.088Z,19.00
2018-10-05T00:54:10.335Z,19.00
2018-10-05T00:55:15.719Z,18.90
2018-10-05T00:56:20.868Z,19.00
2018-10-05T00:57:26.129Z,19.00
2018-10-05T00:58:31.534Z,19.00
2018-10-05T00:59:36.953Z,19.00
2018-10-05T01:00:42.334Z,19.00
2018-10-05T01:01:47.666Z,19.00
2018-10-05T01:02:53.035Z,19.00
2018-10-05T01:03:58.376Z,19.00
2018-10-05T01:05:03.658Z,19.00
2018-10-05T01:06:08.836Z,18.90
2018-10-05T01:07:14.199Z,19.00
2018-10-05T01:08:19.552Z,19.00
2018-10-05T01:09:24.829Z,18.90
2018-10-05T01:10:30.106Z,19.00
2018-10-05T01:11:35.639Z,19.00
2018-10-05T01:12:40.876Z,18.90
2018-10-05T01:13:46.125Z,18.90
2018-10-05T01:14:51.472Z,19.00
2018-10-05T01:15:56.791Z,19.00
2018-10-05T01:17:02.111Z,18.90
2018-10-05T01:18:07.393Z,18.90
2018-10-05T01:19:12.761Z,19.00
2018-10-05T01:20:18.109Z,18.90
2018-10-05T01:21:23.507Z,18.90
2018-10-05T01:22:28.817Z,18.90
2018-10-05T01:23:34.207Z,18.90
2018-10-05T01:24:39.565Z,18.90
2018-10-05T01:25:44.872Z,18.90
2018-10-05T01:26:50.198Z,18.90
2018-10-05T01:27:55.626Z,18.90
2018-10-05T01:29:00.989Z,19.00
2018-10-05T01:30:06.387Z,19.00
2018-10-05T01:31:11.780Z,19.00
2018-10-05T01:32:17.064Z,18.90
2018-10-05T01:33:22.621Z,18.90
2018-10-05T01:34:27.912Z,19.00
2018-10-05T01:35:33.196Z,19.00
2018-10-05T01:36:38.535Z,18.90
2018-10-05T01:37:43.843Z,19.00
2018-10-05T01:38:49.243Z,19.00
2018-10-05T01:39:54.455Z,18.90
2018-10-05T01:40:59.753Z,19.00
2018-10-05T01:42:05.134Z,19.00
2018-10-05T01:43:10.403Z,18.90
2018-10-05T01:44:15.695Z,18.90
2018-10-05T01:45:21.109Z,18.90
2018-10-05T01:46:26.372Z,18.90
2018-10-05T01:47:31.714Z,18.90
2018-10-05T01:48:37.034Z,18.90
2018-10-05T01:49:42.336Z,18.90
2018-10-05T01:50:47.709Z,18.90
2018-10-05T01:51:53.134Z,18.90
2018-10-05T01:52:58.469Z,18.90
2018-10-05T01:54:03.797Z,18.90
2018-10-05T01:55:09.172Z,18.90
2018-10-05T01:56:14.629Z,18.90
2018-10-05T01:57:20.161Z,18.90
2018-10-05T01:58:25.476Z,18.90
2018-10-05T01:59:30.768Z,18.90
2018-10-05T02:00:36.137Z,18.90
2018-10-05T02:01:41.469Z,18.90
2018-10-05T02:02:46.884Z,18.90
2018-10-05T02:03:52.215Z,18.90
2018-10-05T02:04:57.481Z,18.90
2018-10-05T02:06:02.800Z,18.90
2018-10-05T02:07:08.124Z,18.90
2018-10-05T02:08:13.462Z,18.90
2018-10-05T02:09:18.863Z,18.90
2018-10-05T02:10:24.374Z,18.90
2018-10-05T02:11:29.676Z,18.90
2018-10-05T02:12:34.968Z,18.90
2018-10-05T02:13:40.263Z,18.90
2018-10-05T02:14:45.576Z,18.90
2018-10-05T02:15:50.915Z,18.90
2018-10-05T02:16:56.380Z,18.90
2018-10-05T02:18:01.726Z,18.90
2018-10-05T02:19:06.996Z,18.90
2018-10-05T02:20:12.354Z,18.90
2018-10-05T02:21:17.661Z,18.90
2018-10-05T02:22:23.033Z,18.90
2018-10-05T02:23:28.370Z,18.90
2018-10-05T02:24:33.742Z,18.90
2018-10-05T02:25:39.027Z,18.90
2018-10-05T02:26:44.296Z,18.90
2018-10-05T02:27:49.564Z,18.90
2018-10-05T02:28:54.956Z,18.90
2018-10-05T02:30:00.257Z,18.90
2018-10-05T02:31:05.586Z,18.90
2018-10-05T02:32:10.935Z,18.90
2018-10-05T02:33:16.270Z,18.90
2018-10-05T02:34:21.501Z,18.90
2018-10-05T02:35:26.811Z,18.90
2018-10-05T02:36:32.090Z,18.90
2018-10-05T02:37:37.451Z,18.90
2018-10-05T02:38:42.888Z,18.90
2018-10-05T02:39:48.257Z,18.90
2018-10-05T02:40:53.702Z,18.90
2018-10-05T02:41:59.148Z,18.90
2018-10-05T02:43:04.478Z,18.90
2018-10-05T02:44:09.913Z,18.90
2018-10-05T02:45:15.258Z,18.90
2018-10-05T02:46:20.637Z,18.90
2018-10-05T02:47:25.968Z,18.90
2018-10-05T02:48:31.425Z,18.90
2018-10-05T02:49:36.829Z,18.90
2018-10-05T02:50:42.107Z,18.90
2018-10-05T02:51:47.424Z,18.90
2018-10-05T02:52:52.729Z,18.90
2018-10-05T02:53:58.250Z,18.90
2018-10-05T02:55:03.777Z,18.90
2018-10-05T02:56:09.181Z,18.90
2018-10-05T02:57:14.498Z,18.90
2018-10-05T02:58:19.825Z,18.90
2018-10-05T02:59:25.210Z,18.90
2018-10-05T03:00:30.525Z,18.90
2018-10-05T03:01:35.833Z,18.90
2018-10-05T03:02:41.202Z,18.90
2018-10-05T03:03:46.673Z,18.90
2018-10-05T03:04:52.119Z,18.90
2018-10-05T03:05:57.441Z,18.90
2018-10-05T03:07:02.813Z,18.90
2018-10-05T03:08:08.310Z,18.90
2018-10-05T03:09:13.681Z,18.90
2018-10-05T03:10:19.089Z,18.80
2018-10-05T03:11:27.977Z,18.90
2018-10-05T03:12:33.353Z,18.90
2018-10-05T03:13:38.757Z,18.80
2018-10-05T03:14:44.052Z,18.90
2018-10-05T03:15:49.329Z,18.90
2018-10-05T03:16:54.760Z,18.90
2018-10-05T03:18:00.219Z,18.90
2018-10-05T03:19:05.696Z,18.90
2018-10-05T03:20:11.056Z,18.80
2018-10-05T03:21:16.602Z,18.80
2018-10-05T03:22:22.036Z,18.90
2018-10-05T03:23:27.368Z,18.80
2018-10-05T03:24:32.753Z,18.80
2018-10-05T03:25:38.187Z,18.80
2018-10-05T03:26:43.439Z,18.90
2018-10-05T03:27:48.695Z,18.80
2018-10-05T03:28:54.092Z,18.80
2018-10-05T03:29:59.400Z,18.80
2018-10-05T03:31:04.838Z,18.80
2018-10-05T03:32:10.390Z,18.80
2018-10-05T03:33:15.697Z,18.80
2018-10-05T03:34:21.065Z,18.80
2018-10-05T03:35:26.367Z,18.80
2018-10-05T03:36:31.644Z,18.80
2018-10-05T03:37:37.034Z,18.80
2018-10-05T03:38:42.406Z,18.80
2018-10-05T03:39:47.760Z,18.80
2018-10-05T03:40:53.144Z,18.80
2018-10-05T03:41:59.998Z,18.80
2018-10-05T03:43:05.516Z,18.80
2018-10-05T03:44:10.949Z,18.80
2018-10-05T03:45:16.272Z,18.80
2018-10-05T03:46:21.696Z,18.80
2018-10-05T03:47:26.984Z,18.80
2018-10-05T03:48:32.403Z,18.80
2018-10-05T03:49:37.887Z,18.80
2018-10-05T03:50:43.243Z,18.80
2018-10-05T03:51:48.642Z,18.80
2018-10-05T03:52:54.013Z,18.80
2018-10-05T03:53:59.384Z,18.80
2018-10-05T03:55:04.756Z,18.80
2018-10-05T03:56:10.108Z,18.80
2018-10-05T03:57:15.417Z,18.80
2018-10-05T03:58:20.776Z,18.80
2018-10-05T03:59:26.206Z,18.80
2018-10-05T04:00:31.517Z,18.80
2018-10-05T04:01:36.917Z,18.80
2018-10-05T04:02:42.245Z,18.80
2018-10-05T04:03:47.634Z,18.80
2018-10-05T04:04:52.969Z,18.80
2018-10-05T04:05:58.362Z,18.80
2018-10-05T04:07:03.796Z,18.80
2018-10-05T04:08:09.239Z,18.80
2018-10-05T04:09:14.703Z,18.80
2018-10-05T04:10:20.103Z,18.80
2018-10-05T04:11:25.715Z,18.80
2018-10-05T04:12:31.398Z,18.80
2018-10-05T04:13:36.759Z,18.80
2018-10-05T04:14:42.459Z,18.80
2018-10-05T04:15:47.765Z,18.80
2018-10-05T04:16:53.349Z,18.80
2018-10-05T04:17:59.010Z,18.80
2018-10-05T04:19:04.755Z,18.80
2018-10-05T04:20:10.309Z,18.80
2018-10-05T04:21:15.757Z,18.80
2018-10-05T04:22:21.430Z,18.80
2018-10-05T04:23:26.881Z,18.80
2018-10-05T04:24:32.432Z,18.80
2018-10-05T04:25:37.907Z,18.80
2018-10-05T04:26:43.207Z,18.80
2018-10-05T04:27:48.577Z,18.80
2018-10-05T04:28:53.992Z,18.80
2018-10-05T04:29:59.313Z,18.80
2018-10-05T04:31:04.682Z,18.80
2018-10-05T04:32:10.083Z,18.80
2018-10-05T04:33:15.563Z,18.80
2018-10-05T04:34:20.838Z,18.80
2018-10-05T04:35:26.124Z,18.80
2018-10-05T04:36:31.526Z,18.80
2018-10-05T04:37:36.946Z,18.80
2018-10-05T04:38:42.371Z,18.80
2018-10-05T04:39:47.817Z,18.80
2018-10-05T04:40:53.136Z,18.80
2018-10-05T04:41:58.454Z,18.80
2018-10-05T04:43:03.864Z,18.80
2018-10-05T04:44:09.203Z,18.80
2018-10-05T04:45:14.450Z,18.80
2018-10-05T04:46:20.008Z,18.80
2018-10-05T04:47:25.296Z,18.80
2018-10-05T04:48:30.694Z,18.80
2018-10-05T04:49:36.163Z,18.80
2018-10-05T04:50:41.534Z,18.80
2018-10-05T04:51:46.908Z,18.80
2018-10-05T04:52:52.286Z,18.80
2018-10-05T04:53:57.794Z,18.80
2018-10-05T04:55:03.212Z,18.80
2018-10-05T04:56:08.629Z,18.80
2018-10-05T04:57:13.974Z,18.80
2018-10-05T04:58:19.354Z,18.80
2018-10-05T04:59:24.686Z,18.80
2018-10-05T05:00:30.082Z,18.80
2018-10-05T05:01:35.382Z,18.80
2018-10-05T05:02:40.800Z,18.80
2018-10-05T05:03:46.197Z,18.80
2018-10-05T05:04:51.521Z,18.80
2018-10-05T05:05:56.896Z,18.80
2018-10-05T05:07:02.212Z,18.80
2018-10-05T05:08:07.520Z,18.80
2018-10-05T05:09:12.848Z,18.80
2018-10-05T05:10:18.127Z,18.80
2018-10-05T05:11:23.430Z,18.80
2018-10-05T05:12:28.796Z,18.80
2018-10-05T05:13:34.240Z,18.80
2018-10-05T05:14:39.573Z,18.80
2018-10-05T05:15:44.989Z,18.80
2018-10-05T05:16:50.456Z,18.80
2018-10-05T05:17:55.854Z,18.80
2018-10-05T05:19:01.289Z,18.80
2018-10-05T05:20:06.579Z,18.80
2018-10-05T05:21:11.889Z,18.80
2018-10-05T05:22:17.281Z,18.80
2018-10-05T05:23:23.053Z,18.80
2018-10-05T05:24:28.479Z,18.80
2018-10-05T05:25:34.025Z,18.80
2018-10-05T05:26:39.386Z,18.80
2018-10-05T05:27:44.696Z,18.80
2018-10-05T05:28:50.030Z,18.80
2018-10-05T05:29:55.682Z,18.80
2018-10-05T05:31:01.394Z,18.80
2018-10-05T05:32:06.909Z,18.80
2018-10-05T05:33:12.972Z,18.80
2018-10-05T05:34:18.533Z,18.80
2018-10-05T05:35:23.954Z,18.80
2018-10-05T05:36:29.367Z,18.80
2018-10-05T05:37:34.727Z,18.80
2018-10-05T05:38:40.248Z,18.80
2018-10-05T05:39:45.573Z,18.80
2018-10-05T05:40:51.118Z,18.80
2018-10-05T05:41:56.648Z,18.80
2018-10-05T05:43:02.008Z,18.80
2018-10-05T05:44:07.428Z,18.80
2018-10-05T05:45:12.927Z,18.80
2018-10-05T05:46:18.261Z,18.80
2018-10-05T05:47:23.649Z,18.80
2018-10-05T05:48:29.101Z,18.80
2018-10-05T05:49:34.514Z,18.90
2018-10-05T05:50:40.188Z,18.90
2018-10-05T05:51:45.674Z,18.90
2018-10-05T05:52:51.003Z,18.90
2018-10-05T05:53:56.294Z,18.90
2018-10-05T05:55:01.564Z,18.90
2018-10-05T05:56:06.872Z,18.90
2018-10-05T05:57:12.263Z,18.90
2018-10-05T05:58:18.885Z,18.90
2018-10-05T05:59:24.522Z,18.90
2018-10-05T06:00:30.535Z,18.90
2018-10-05T06:01:35.974Z,18.90
2018-10-05T06:02:41.363Z,18.90
2018-10-05T06:03:46.690Z,18.90
2018-10-05T06:04:52.268Z,18.90
2018-10-05T06:05:57.540Z,18.90
2018-10-05T06:07:02.855Z,18.90
2018-10-05T06:08:08.214Z,18.90
2018-10-05T06:09:13.669Z,18.90
2018-10-05T06:10:19.056Z,18.90
2018-10-05T06:11:24.545Z,19.00
2018-10-05T06:12:30.123Z,19.00
2018-10-05T06:13:35.483Z,19.00
2018-10-05T06:14:40.908Z,19.00
2018-10-05T06:15:46.248Z,19.00
2018-10-05T06:16:51.641Z,19.00
2018-10-05T06:17:56.945Z,19.00
2018-10-05T06:19:02.258Z,19.00
2018-10-05T06:20:07.737Z,19.00
2018-10-05T06:21:13.104Z,19.00
2018-10-05T06:22:18.673Z,19.00
2018-10-05T06:23:23.994Z,19.00
2018-10-05T06:24:29.374Z,19.00
2018-10-05T06:25:34.658Z,19.00
2018-10-05T06:26:39.990Z,19.00
2018-10-05T06:27:45.487Z,18.90
2018-10-05T06:28:51.045Z,18.90
2018-10-05T06:29:56.324Z,18.90
2018-10-05T06:31:01.713Z,18.90
2018-10-05T06:32:07.083Z,18.90
2018-10-05T06:33:12.662Z,18.90
2018-10-05T06:34:18.075Z,18.90
2018-10-05T06:35:23.421Z,18.90
2018-10-05T06:36:28.855Z,18.90
2018-10-05T06:37:34.239Z,18.90
2018-10-05T06:38:39.623Z,18.90
2018-10-05T06:39:45.056Z,18.90
2018-10-05T06:40:50.419Z,18.90
2018-10-05T06:41:55.753Z,18.90
2018-10-05T06:43:01.220Z,18.90
2018-10-05T06:44:06.587Z,18.90
2018-10-05T06:45:11.879Z,18.90
2018-10-05T06:46:17.187Z,18.90
2018-10-05T06:47:22.506Z,18.90
2018-10-05T06:48:28.006Z,18.90
2018-10-05T06:49:33.503Z,18.90
2018-10-05T06:50:38.841Z,18.90
2018-10-05T06:51:44.340Z,18.90
2018-10-05T06:52:49.632Z,18.90
2018-10-05T06:53:54.924Z,18.90
2018-10-05T06:55:00.321Z,18.90
2018-10-05T06:56:05.824Z,18.90
2018-10-05T06:57:11.303Z,18.90
2018-10-05T06:58:16.743Z,18.90
2018-10-05T06:59:23.063Z,18.90
2018-10-05T07:00:28.474Z,18.90
2018-10-05T07:01:33.913Z,18.90
2018-10-05T07:02:39.367Z,18.90
2018-10-05T07:03:44.673Z,18.90
2018-10-05T07:04:50.055Z,18.90
2018-10-05T07:05:55.381Z,18.90
2018-10-05T07:07:00.665Z,18.90
2018-10-05T07:08:06.366Z,18.90
2018-10-05T07:09:11.652Z,18.90
2018-10-05T07:10:16.888Z,18.90
2018-10-05T07:11:22.310Z,18.90
2018-10-05T07:12:27.576Z,18.90
2018-10-05T07:13:33.259Z,18.90
2018-10-05T07:14:38.530Z,18.90
2018-10-05T07:15:43.861Z,18.90
2018-10-05T07:16:49.154Z,18.90
2018-10-05T07:17:54.560Z,18.90
2018-10-05T07:18:59.921Z,18.90
2018-10-05T07:20:05.363Z,18.90
2018-10-05T07:21:10.741Z,18.90
2018-10-05T07:22:16.006Z,18.90
2018-10-05T07:23:21.316Z,18.90
2018-10-05T07:24:26.593Z,18.90
2018-10-05T07:25:31.920Z,18.90
2018-10-05T07:26:37.259Z,19.00
2018-10-05T07:27:42.665Z,19.00
2018-10-05T07:28:48.094Z,19.00
2018-10-05T07:29:53.414Z,19.00
2018-10-05T07:30:58.712Z,19.00
2018-10-05T07:32:04.229Z,19.00
2018-10-05T07:33:09.552Z,19.00
2018-10-05T07:34:15.012Z,19.00
2018-10-05T07:35:20.384Z,18.90
2018-10-05T07:36:26.003Z,19.00
2018-10-05T07:37:31.437Z,19.00
2018-10-05T07:38:36.749Z,19.00
2018-10-05T07:39:42.115Z,19.00
2018-10-05T07:40:47.577Z,18.90
2018-10-05T07:41:52.942Z,19.00
2018-10-05T07:42:58.436Z,18.90
2018-10-05T07:44:03.821Z,18.90
2018-10-05T07:45:09.202Z,18.90
2018-10-05T07:46:14.514Z,19.00
2018-10-05T07:47:19.990Z,18.90
2018-10-05T07:48:25.368Z,18.90
2018-10-05T07:49:30.693Z,18.90
2018-10-05T07:50:36.251Z,18.90
2018-10-05T07:51:41.705Z,18.90
2018-10-05T07:52:47.060Z,18.90
2018-10-05T07:53:52.452Z,18.90
2018-10-05T07:54:57.864Z,19.00
2018-10-05T07:56:03.215Z,19.00
2018-10-05T07:57:08.550Z,19.00
2018-10-05T07:58:13.862Z,19.00
2018-10-05T07:59:19.239Z,19.00
2018-10-05T08:00:24.702Z,19.20
2018-10-05T08:01:30.164Z,19.30
2018-10-05T08:02:35.581Z,19.40
2018-10-05T08:03:40.849Z,19.40
2018-10-05T08:04:46.221Z,19.30
2018-10-05T08:05:51.712Z,19.30
2018-10-05T08:06:57.026Z,19.30
2018-10-05T08:08:02.432Z,19.30
2018-10-05T08:09:07.802Z,19.20
2018-10-05T08:10:13.269Z,19.20
2018-10-05T08:11:18.707Z,19.20
2018-10-05T08:12:24.045Z,19.20
2018-10-05T08:13:29.349Z,19.20
2018-10-05T08:14:34.771Z,19.20
2018-10-05T08:15:40.090Z,19.20
2018-10-05T08:16:45.486Z,19.20
2018-10-05T08:17:50.991Z,19.10
2018-10-05T08:18:56.426Z,19.10
2018-10-05T08:20:01.860Z,19.20
2018-10-05T08:21:07.256Z,19.10
2018-10-05T08:22:13.074Z,19.20
2018-10-05T08:23:18.532Z,19.20
2018-10-05T08:24:23.986Z,19.20
2018-10-05T08:25:29.273Z,19.20
2018-10-05T08:26:34.673Z,19.20
2018-10-05T08:27:40.025Z,19.20
2018-10-05T08:28:45.439Z,19.20
2018-10-05T08:29:50.746Z,19.20
2018-10-05T08:30:56.119Z,19.20
2018-10-05T08:32:01.412Z,19.20
2018-10-05T08:33:06.692Z,19.20
2018-10-05T08:34:12.251Z,19.20
2018-10-05T08:35:17.529Z,19.20
2018-10-05T08:36:22.944Z,19.20
2018-10-05T08:37:28.283Z,19.20
2018-10-05T08:38:33.700Z,19.30
2018-10-05T08:39:39.129Z,19.30
2018-10-05T08:40:44.471Z,19.30
2018-10-05T08:41:49.807Z,19.30
2018-10-05T08:42:55.190Z,19.30
2018-10-05T08:44:00.687Z,19.30
2018-10-05T08:45:05.956Z,19.30
2018-10-05T08:46:11.287Z,19.30
2018-10-05T08:47:16.623Z,19.30
2018-10-05T08:48:22.033Z,19.30
2018-10-05T08:49:27.468Z,19.30
2018-10-05T08:50:32.868Z,19.30
2018-10-05T08:51:38.270Z,19.30
2018-10-05T08:52:43.677Z,19.40
2018-10-05T08:53:49.031Z,19.40
2018-10-05T08:54:54.454Z,19.40
2018-10-05T08:55:59.874Z,19.40
2018-10-05T08:57:05.268Z,19.40
2018-10-05T08:58:10.555Z,19.40
2018-10-05T08:59:15.927Z,19.40
2018-10-05T09:00:21.244Z,19.40
2018-10-05T09:01:26.591Z,19.40
2018-10-05T09:02:32.007Z,19.40
2018-10-05T09:03:37.434Z,19.40
2018-10-05T09:04:42.725Z,19.40
2018-10-05T09:05:48.198Z,19.40
2018-10-05T09:06:53.660Z,19.40
2018-10-05T09:07:58.968Z,19.40
2018-10-05T09:09:04.395Z,19.40
2018-10-05T09:10:09.772Z,19.40
2018-10-05T09:11:15.161Z,19.40
2018-10-05T09:12:20.444Z,19.40
2018-10-05T09:13:25.725Z,19.40
2018-10-05T09:14:31.032Z,19.40
2018-10-05T09:15:36.321Z,19.40
2018-10-05T09:16:42.464Z,19.40
2018-10-05T09:17:48.247Z,19.50
2018-10-05T09:18:53.604Z,19.50
2018-10-05T09:19:58.936Z,19.50
2018-10-05T09:21:04.507Z,19.50
2018-10-05T09:22:09.846Z,19.50
2018-10-05T09:23:15.335Z,19.50
2018-10-05T09:24:20.871Z,19.50
2018-10-05T09:25:26.206Z,19.50
2018-10-05T09:26:31.719Z,19.50
2018-10-05T09:27:37.073Z,19.50
2018-10-05T09:28:42.516Z,19.50
2018-10-05T09:29:47.889Z,19.50
2018-10-05T09:30:53.243Z,19.50
2018-10-05T09:31:58.513Z,19.50
2018-10-05T09:33:04.023Z,19.50
2018-10-05T09:34:09.369Z,19.50
2018-10-05T09:35:14.708Z,19.50
2018-10-05T09:36:20.213Z,19.50
2018-10-05T09:37:25.503Z,19.50
2018-10-05T09:38:30.799Z,19.50
2018-10-05T09:39:36.217Z,19.50
2018-10-05T09:40:41.573Z,19.50
2018-10-05T09:41:46.877Z,19.50
2018-10-05T09:42:52.358Z,19.50
2018-10-05T09:43:57.767Z,19.50
2018-10-05T09:45:03.350Z,19.50
2018-10-05T09:46:08.750Z,19.50
2018-10-05T09:47:14.129Z,19.50
2018-10-05T09:48:19.552Z,19.50
2018-10-05T09:49:24.958Z,19.60
2018-10-05T09:50:30.379Z,19.50
2018-10-05T09:51:35.788Z,19.60
2018-10-05T09:52:41.286Z,19.60
2018-10-05T09:53:46.509Z,19.60
2018-10-05T09:54:51.865Z,19.60
2018-10-05T09:55:58.054Z,19.60
2018-10-05T09:57:03.449Z,19.60
2018-10-05T09:58:08.932Z,19.60
2018-10-05T09:59:14.337Z,19.60
2018-10-05T10:00:19.745Z,19.60
2018-10-05T10:01:24.982Z,19.60
2018-10-05T10:02:30.434Z,19.60
2018-10-05T10:03:35.884Z,19.60
2018-10-05T10:04:41.140Z,19.60
2018-10-05T10:05:46.458Z,19.60
2018-10-05T10:06:51.885Z,19.60
2018-10-05T10:07:57.211Z,19.60
2018-10-05T10:09:02.651Z,19.60
2018-10-05T10:10:07.992Z,19.60
2018-10-05T10:11:13.465Z,19.60
2018-10-05T10:12:19.899Z,19.60
2018-10-05T10:13:25.502Z,19.60
2018-10-05T10:14:30.822Z,19.70
2018-10-05T10:15:36.368Z,19.60
2018-10-05T10:16:41.924Z,19.60
2018-10-05T10:17:47.291Z,19.60
2018-10-05T10:18:52.690Z,19.60
2018-10-05T10:19:58.025Z,19.60
2018-10-05T10:21:03.982Z,19.60
2018-10-05T10:22:09.496Z,19.60
2018-10-05T10:23:15.013Z,19.60
2018-10-05T10:24:20.548Z,19.60
2018-10-05T10:25:25.891Z,19.70
2018-10-05T10:26:31.245Z,19.60
2018-10-05T10:27:36.618Z,19.60
2018-10-05T10:28:42.156Z,19.70
2018-10-05T10:29:47.363Z,19.70
2018-10-05T10:30:52.847Z,19.70
2018-10-05T10:31:58.284Z,19.80
2018-10-05T10:33:03.678Z,19.80
2018-10-05T10:34:09.034Z,19.80
2018-10-05T10:35:14.354Z,19.80
2018-10-05T10:36:19.793Z,19.80
2018-10-05T10:37:25.161Z,19.80
2018-10-05T10:38:30.596Z,19.80
2018-10-05T10:39:35.897Z,19.80
2018-10-05T10:40:41.441Z,19.80
2018-10-05T10:41:47.065Z,19.80
2018-10-05T10:42:52.442Z,19.80
2018-10-05T10:43:57.782Z,19.80
2018-10-05T10:45:03.270Z,19.80
2018-10-05T10:46:08.835Z,19.80
2018-10-05T10:47:14.201Z,19.80
2018-10-05T10:48:19.751Z,19.80
2018-10-05T10:49:25.224Z,19.80
2018-10-05T10:50:30.576Z,19.80
2018-10-05T10:51:36.110Z,19.80
2018-10-05T10:52:41.773Z,19.80
2018-10-05T10:53:47.161Z,19.80
2018-10-05T10:54:52.690Z,19.80
2018-10-05T10:55:58.119Z,19.80
2018-10-05T10:57:03.609Z,19.80
2018-10-05T10:58:09.024Z,19.80
2018-10-05T10:59:14.352Z,19.80
2018-10-05T11:00:19.741Z,19.80
2018-10-05T11:01:25.058Z,19.80
2018-10-05T11:02:30.446Z,19.90
2018-10-05T11:03:35.723Z,19.80
2018-10-05T11:04:41.237Z,19.80
2018-10-05T11:05:46.446Z,19.90
2018-10-05T11:06:51.947Z,19.80
2018-10-05T11:07:57.561Z,19.90
2018-10-05T11:09:02.978Z,19.90
2018-10-05T11:10:08.631Z,19.90
2018-10-05T11:11:14.251Z,19.80
2018-10-05T11:12:19.637Z,19.90
2018-10-05T11:13:25.167Z,19.90
2018-10-05T11:14:30.475Z,19.90
2018-10-05T11:15:35.800Z,19.90
2018-10-05T11:16:41.253Z,19.90
2018-10-05T11:17:46.563Z,19.90
2018-10-05T11:18:51.964Z,19.90
2018-10-05T11:19:57.283Z,19.90
2018-10-05T11:21:02.895Z,19.90
2018-10-05T11:22:08.286Z,19.90
2018-10-05T11:23:13.810Z,19.90
2018-10-05T11:24:19.156Z,19.90
2018-10-05T11:25:24.732Z,19.90
2018-10-05T11:26:30.146Z,19.90
2018-10-05T11:27:35.595Z,19.90
2018-10-05T11:28:40.963Z,19.90
2018-10-05T11:29:46.361Z,19.90
2018-10-05T11:30:51.875Z,19.90
2018-10-05T11:31:57.333Z,19.90
2018-10-05T11:33:02.674Z,19.90
2018-10-05T11:34:08.096Z,19.90
2018-10-05T11:35:13.493Z,19.90
2018-10-05T11:36:18.825Z,20.00
2018-10-05T11:37:24.226Z,19.90
2018-10-05T11:38:29.712Z,19.90
2018-10-05T11:39:35.109Z,19.90
2018-10-05T11:40:40.517Z,20.00
2018-10-05T11:41:45.834Z,20.00
2018-10-05T11:42:51.226Z,20.00
2018-10-05T11:43:56.571Z,20.00
2018-10-05T11:45:02.009Z,20.00
2018-10-05T11:46:07.333Z,20.00
2018-10-05T11:47:12.714Z,20.00
2018-10-05T11:48:18.088Z,20.00
2018-10-05T11:49:23.419Z,20.00
2018-10-05T11:50:28.781Z,20.00
2018-10-05T11:51:34.247Z,20.00
2018-10-05T11:52:39.532Z,20.00
2018-10-05T11:53:44.947Z,20.00
2018-10-05T11:54:50.444Z,20.00
2018-10-05T11:55:55.833Z,20.00
2018-10-05T11:57:01.270Z,20.00
2018-10-05T11:58:06.724Z,20.00
2018-10-05T11:59:12.111Z,20.00
2018-10-05T12:00:17.512Z,20.00
2018-10-05T12:01:22.905Z,20.00
2018-10-05T12:02:28.347Z,20.00
2018-10-05T12:03:33.787Z,20.00
2018-10-05T12:04:40.344Z,20.00
2018-10-05T12:05:46.272Z,20.10
2018-10-05T12:06:51.656Z,20.00
2018-10-05T12:07:58.230Z,20.00
2018-10-05T12:09:03.798Z,20.00
2018-10-05T12:10:09.984Z,20.00
2018-10-05T12:11:15.473Z,20.00
2018-10-05T12:12:21.304Z,20.00
2018-10-05T12:13:26.838Z,20.10
2018-10-05T12:14:32.271Z,20.10
2018-10-05T12:15:37.782Z,20.10
2018-10-05T12:16:43.149Z,20.10
2018-10-05T12:17:48.645Z,20.10
2018-10-05T12:18:54.270Z,20.10
2018-10-05T12:20:00.607Z,20.10
2018-10-05T12:21:06.035Z,20.10
2018-10-05T12:22:11.362Z,20.20
2018-10-05T12:23:16.652Z,20.10
2018-10-05T12:24:22.158Z,20.10
2018-10-05T12:25:27.570Z,20.10
2018-10-05T12:26:32.919Z,20.10
2018-10-05T12:27:38.429Z,20.10
2018-10-05T12:28:43.878Z,20.10
2018-10-05T12:29:49.481Z,20.20
2018-10-05T12:30:54.965Z,20.20
2018-10-05T12:32:00.885Z,20.20
2018-10-05T12:33:06.635Z,20.20
2018-10-05T12:34:12.039Z,20.20
2018-10-05T12:35:17.414Z,20.30
2018-10-05T12:36:23.038Z,20.30
2018-10-05T12:37:28.544Z,20.30
2018-10-05T12:38:33.959Z,20.30
2018-10-05T12:39:39.539Z,20.30
2018-10-05T12:40:44.996Z,20.30
2018-10-05T12:41:50.480Z,20.30
2018-10-05T12:42:55.964Z,20.30
2018-10-05T12:44:01.338Z,20.30
2018-10-05T12:45:06.670Z,20.30
2018-10-05T12:46:12.058Z,20.30
2018-10-05T12:47:17.556Z,20.30
2018-10-05T12:48:23.073Z,20.30
2018-10-05T12:49:28.531Z,20.40
2018-10-05T12:50:34.089Z,20.40
2018-10-05T12:51:39.460Z,20.40
2018-10-05T12:52:44.793Z,20.40
2018-10-05T12:53:50.095Z,20.40
2018-10-05T12:54:55.536Z,20.40
2018-10-05T12:56:00.933Z,20.40
2018-10-05T12:57:06.240Z,20.40
2018-10-05T12:58:11.736Z,20.40
2018-10-05T12:59:17.253Z,20.40
2018-10-05T13:00:22.730Z,20.40
2018-10-05T13:01:28.166Z,20.40
2018-10-05T13:02:33.470Z,20.50
2018-10-05T13:03:38.885Z,20.50
2018-10-05T13:04:44.400Z,20.50
2018-10-05T13:05:49.809Z,20.50
2018-10-05T13:06:55.269Z,20.50
2018-10-05T13:08:00.650Z,20.50
2018-10-05T13:09:06.117Z,20.50
2018-10-05T13:10:11.612Z,20.50
2018-10-05T13:11:17.497Z,20.50
2018-10-05T13:12:22.906Z,20.50
2018-10-05T13:13:28.162Z,20.50
2018-10-05T13:14:33.687Z,20.50
2018-10-05T13:15:38.998Z,20.50
2018-10-05T13:16:44.372Z,20.50
2018-10-05T13:17:49.849Z,20.50
2018-10-05T13:18:55.256Z,20.50
2018-10-05T13:20:00.823Z,20.50
2018-10-05T13:21:06.273Z,20.50
2018-10-05T13:22:11.789Z,20.50
2018-10-05T13:23:17.253Z,20.50
2018-10-05T13:24:22.649Z,20.50
2018-10-05T13:25:28.105Z,20.50
2018-10-05T13:26:33.601Z,20.60
2018-10-05T13:27:39.072Z,20.60
2018-10-05T13:28:44.555Z,20.60
2018-10-05T13:29:49.979Z,20.60
2018-10-05T13:30:55.349Z,20.60
2018-10-05T13:32:00.724Z,20.70
2018-10-05T13:33:06.418Z,20.60
2018-10-05T13:34:12.042Z,20.60
2018-10-05T13:35:17.344Z,20.60
2018-10-05T13:36:22.694Z,20.60
2018-10-05T13:37:28.182Z,20.60
2018-10-05T13:38:33.634Z,20.60
2018-10-05T13:39:39.128Z,20.60
2018-10-05T13:40:44.701Z,20.70
2018-10-05T13:41:50.010Z,20.60
2018-10-05T13:42:55.324Z,20.60
2018-10-05T13:44:00.781Z,20.60
2018-10-05T13:45:06.207Z,20.60
2018-10-05T13:46:11.548Z,20.60
2018-10-05T13:47:16.961Z,20.60
2018-10-05T13:48:22.632Z,20.60
2018-10-05T13:49:28.298Z,20.60
2018-10-05T13:50:33.686Z,20.60
2018-10-05T13:51:38.941Z,20.70
2018-10-05T13:52:44.538Z,20.70
2018-10-05T13:53:49.876Z,20.60
2018-10-05T13:54:55.318Z,20.60
2018-10-05T13:56:01.004Z,20.70
2018-10-05T13:57:06.609Z,20.70
2018-10-05T13:58:12.212Z,20.70
2018-10-05T13:59:17.628Z,20.70
2018-10-05T14:00:23.026Z,20.70
2018-10-05T14:01:28.645Z,20.70
2018-10-05T14:02:34.296Z,20.70